CHH722 VTBS-ZJHK
Flight info
| Callsign | CHH722 |
|---|---|
| Flight time | 1h 38m |
| Altitude | 33000 |
| Route | SELKA1G SELKA A1 SANOT Y15 GUROK A202 VILAO/K0850F330 A202 ASSAD/K0850S1005 ASSAD9XA |
| Aircraft | B738/M-SDE2E3FGHIRWXY/LB1 |
Departure
| Time | 2026-04-30 07:55 |
|---|---|
| Airport | Suvarnabhumi Airport (VTBS) |
Arrival
| Time | 2026-04-30 09:34 |
|---|---|
| Airport | Haikou Meilan International Airport (ZJHK) |
| Time | Latitude | Longitude | Altitude | Speed | Heading |
|---|---|---|---|---|---|
| 2026-04-30 07:19 | 13.68694 | 100.75589 | 7 ft | 0 kts | 104° |
| 2026-04-30 07:46 | 13.68697 | 100.75580 | 7 ft | 3 kts | 103° |
| 2026-04-30 07:46 | 13.68700 | 100.75560 | 7 ft | 3 kts | 97° |
| 2026-04-30 07:46 | 13.68702 | 100.75539 | 7 ft | 3 kts | 91° |
| 2026-04-30 07:47 | 13.68702 | 100.75518 | 7 ft | 3 kts | 81° |
| 2026-04-30 07:47 | 13.68697 | 100.75499 | 7 ft | 3 kts | 60° |
| 2026-04-30 07:47 | 13.68687 | 100.75485 | 10 ft | 2 kts | 21° |
| 2026-04-30 07:47 | 13.68683 | 100.75484 | 9 ft | 0 kts | 14° |
| 2026-04-30 07:50 | 13.68722 | 100.75494 | 7 ft | 7 kts | 14° |
| 2026-04-30 07:50 | 13.68769 | 100.75505 | 9 ft | 7 kts | 13° |
| 2026-04-30 07:50 | 13.68815 | 100.75517 | 7 ft | 7 kts | 14° |
| 2026-04-30 07:51 | 13.68853 | 100.75586 | 7 ft | 16 kts | 102° |
| 2026-04-30 07:51 | 13.68831 | 100.75674 | 9 ft | 9 kts | 105° |
| 2026-04-30 07:51 | 13.68811 | 100.75752 | 7 ft | 15 kts | 104° |
| 2026-04-30 07:51 | 13.68869 | 100.75834 | 7 ft | 13 kts | 13° |
| 2026-04-30 07:52 | 13.68976 | 100.75862 | 8 ft | 20 kts | 14° |
| 2026-04-30 07:52 | 13.69075 | 100.75890 | 7 ft | 11 kts | 31° |
| 2026-04-30 07:52 | 13.69088 | 100.75941 | 7 ft | 2 kts | 108° |
| 2026-04-30 07:52 | 13.69087 | 100.75946 | 7 ft | 0 kts | 108° |
| 2026-04-30 07:53 | 13.69087 | 100.75947 | 7 ft | 1 kts | 108° |
| 2026-04-30 07:53 | 13.69071 | 100.75998 | 7 ft | 13 kts | 107° |
| 2026-04-30 07:54 | 13.69014 | 100.76061 | 7 ft | 13 kts | 173° |
| 2026-04-30 07:54 | 13.68914 | 100.76036 | 9 ft | 29 kts | 195° |
| 2026-04-30 07:54 | 13.68486 | 100.75923 | 9 ft | 97 kts | 194° |
| 2026-04-30 07:54 | 13.67634 | 100.75698 | 8 ft | 153 kts | 195° |
| 2026-04-30 07:55 | 13.66526 | 100.75412 | 443 ft | 168 kts | 194° |
| 2026-04-30 07:55 | 13.65384 | 100.75145 | 1111 ft | 175 kts | 192° |
| 2026-04-30 07:55 | 13.64109 | 100.75002 | 1597 ft | 196 kts | 175° |
| 2026-04-30 07:55 | 13.62674 | 100.75095 | 1913 ft | 219 kts | 175° |
| 2026-04-30 07:56 | 13.61098 | 100.75170 | 2421 ft | 233 kts | 176° |
| 2026-04-30 07:56 | 13.59468 | 100.75432 | 2823 ft | 249 kts | 153° |
| 2026-04-30 07:56 | 13.58166 | 100.76629 | 3256 ft | 259 kts | 117° |
| 2026-04-30 07:56 | 13.57736 | 100.78388 | 4104 ft | 260 kts | 88° |
| 2026-04-30 07:57 | 13.58057 | 100.80234 | 4832 ft | 264 kts | 86° |
| 2026-04-30 07:57 | 13.57673 | 100.82051 | 5563 ft | 264 kts | 122° |
| 2026-04-30 07:57 | 13.56763 | 100.83693 | 6265 ft | 270 kts | 106° |
| 2026-04-30 07:57 | 13.56741 | 100.85620 | 6946 ft | 276 kts | 81° |
| 2026-04-30 07:58 | 13.57025 | 100.87583 | 7564 ft | 278 kts | 85° |
| 2026-04-30 07:58 | 13.57159 | 100.89577 | 7880 ft | 279 kts | 89° |
| 2026-04-30 07:58 | 13.57216 | 100.91582 | 8257 ft | 285 kts | 90° |
| 2026-04-30 07:58 | 13.57233 | 100.93631 | 8938 ft | 289 kts | 91° |
| 2026-04-30 07:59 | 13.57229 | 100.95711 | 9656 ft | 293 kts | 92° |
| 2026-04-30 07:59 | 13.57215 | 100.97818 | 10268 ft | 299 kts | 91° |
| 2026-04-30 07:59 | 13.57197 | 101.00035 | 10434 ft | 322 kts | 91° |
| 2026-04-30 08:00 | 13.58487 | 101.04608 | 11008 ft | 355 kts | 51° |
| 2026-04-30 08:00 | 13.60122 | 101.06521 | 11657 ft | 358 kts | 48° |
| 2026-04-30 08:00 | 13.61838 | 101.08404 | 12156 ft | 365 kts | 47° |
| 2026-04-30 08:00 | 13.63603 | 101.10309 | 12750 ft | 368 kts | 47° |
| 2026-04-30 08:01 | 13.65373 | 101.12223 | 13409 ft | 370 kts | 47° |
| 2026-04-30 08:01 | 13.67157 | 101.14166 | 13864 ft | 378 kts | 47° |
| 2026-04-30 08:01 | 13.68959 | 101.16142 | 14407 ft | 379 kts | 47° |
| 2026-04-30 08:01 | 13.70760 | 101.18129 | 14996 ft | 380 kts | 47° |
| 2026-04-30 08:02 | 13.74395 | 101.22158 | 16071 ft | 385 kts | 47° |
| 2026-04-30 08:02 | 13.76229 | 101.24195 | 16515 ft | 392 kts | 47° |
| 2026-04-30 08:03 | 13.79949 | 101.28334 | 17615 ft | 396 kts | 47° |
| 2026-04-30 08:03 | 13.83731 | 101.32544 | 18552 ft | 401 kts | 47° |
| 2026-04-30 08:03 | 13.85630 | 101.34659 | 18986 ft | 404 kts | 47° |
| 2026-04-30 08:04 | 13.87546 | 101.36793 | 19374 ft | 408 kts | 47° |
| 2026-04-30 08:04 | 13.89477 | 101.38944 | 19828 ft | 410 kts | 47° |
| 2026-04-30 08:04 | 13.91416 | 101.41104 | 20248 ft | 412 kts | 47° |
| 2026-04-30 08:04 | 13.93367 | 101.43279 | 20682 ft | 414 kts | 47° |
| 2026-04-30 08:05 | 13.95330 | 101.45467 | 21079 ft | 418 kts | 46° |
| 2026-04-30 08:05 | 13.97309 | 101.47674 | 21477 ft | 420 kts | 46° |
| 2026-04-30 08:05 | 13.99293 | 101.49888 | 21925 ft | 422 kts | 46° |
| 2026-04-30 08:05 | 14.01291 | 101.52117 | 22276 ft | 425 kts | 46° |
| 2026-04-30 08:06 | 14.03298 | 101.54357 | 22731 ft | 426 kts | 46° |
| 2026-04-30 08:06 | 14.05314 | 101.56608 | 23054 ft | 430 kts | 46° |
| 2026-04-30 08:06 | 14.07344 | 101.58875 | 23467 ft | 431 kts | 46° |
| 2026-04-30 08:06 | 14.09376 | 101.61147 | 23794 ft | 433 kts | 46° |
| 2026-04-30 08:07 | 14.11425 | 101.63436 | 24065 ft | 436 kts | 46° |
| 2026-04-30 08:07 | 14.13480 | 101.65733 | 24417 ft | 436 kts | 46° |
| 2026-04-30 08:07 | 14.15540 | 101.68037 | 24712 ft | 438 kts | 46° |
| 2026-04-30 08:07 | 14.17586 | 101.70325 | 24981 ft | 441 kts | 46° |
| 2026-04-30 08:08 | 14.19671 | 101.72658 | 25245 ft | 444 kts | 46° |
| 2026-04-30 08:08 | 14.21770 | 101.75007 | 25552 ft | 446 kts | 46° |
| 2026-04-30 08:08 | 14.23877 | 101.77365 | 25867 ft | 448 kts | 46° |
| 2026-04-30 08:08 | 14.25989 | 101.79731 | 26160 ft | 450 kts | 46° |
| 2026-04-30 08:09 | 14.28111 | 101.82109 | 26428 ft | 452 kts | 46° |
| 2026-04-30 08:09 | 14.30248 | 101.84503 | 26665 ft | 455 kts | 46° |
| 2026-04-30 08:09 | 14.32398 | 101.86914 | 26925 ft | 458 kts | 46° |
| 2026-04-30 08:09 | 14.34290 | 101.89561 | 27135 ft | 463 kts | 63° |
| 2026-04-30 08:10 | 14.35440 | 101.92663 | 27449 ft | 464 kts | 71° |
| 2026-04-30 08:10 | 14.36464 | 101.95828 | 27734 ft | 466 kts | 71° |
| 2026-04-30 08:10 | 14.37498 | 101.99006 | 27966 ft | 469 kts | 70° |
| 2026-04-30 08:10 | 14.38551 | 102.02199 | 28190 ft | 471 kts | 70° |
| 2026-04-30 08:11 | 14.39621 | 102.05402 | 28420 ft | 474 kts | 70° |
| 2026-04-30 08:11 | 14.40708 | 102.08625 | 28596 ft | 477 kts | 70° |
| 2026-04-30 08:11 | 14.41806 | 102.11863 | 28841 ft | 479 kts | 70° |
| 2026-04-30 08:11 | 14.42908 | 102.15110 | 29098 ft | 481 kts | 70° |
| 2026-04-30 08:12 | 14.44017 | 102.18372 | 29349 ft | 483 kts | 70° |
| 2026-04-30 08:12 | 14.45129 | 102.21648 | 29570 ft | 485 kts | 70° |
| 2026-04-30 08:12 | 14.46244 | 102.24937 | 29785 ft | 487 kts | 70° |
| 2026-04-30 08:12 | 14.47362 | 102.28238 | 29970 ft | 489 kts | 70° |
| 2026-04-30 08:13 | 14.48486 | 102.31557 | 30153 ft | 490 kts | 70° |
| 2026-04-30 08:13 | 14.49611 | 102.34884 | 30336 ft | 492 kts | 70° |
| 2026-04-30 08:13 | 14.50739 | 102.38222 | 30517 ft | 493 kts | 70° |
| 2026-04-30 08:13 | 14.51871 | 102.41571 | 30693 ft | 495 kts | 70° |
| 2026-04-30 08:14 | 14.53005 | 102.44929 | 30850 ft | 497 kts | 70° |
| 2026-04-30 08:14 | 14.54141 | 102.48296 | 31088 ft | 496 kts | 69° |
| 2026-04-30 08:14 | 14.55275 | 102.51658 | 31374 ft | 495 kts | 69° |
| 2026-04-30 08:14 | 14.56405 | 102.55012 | 31651 ft | 494 kts | 69° |
| 2026-04-30 08:15 | 14.57536 | 102.58366 | 31883 ft | 495 kts | 69° |
| 2026-04-30 08:15 | 14.58665 | 102.61720 | 32106 ft | 495 kts | 69° |
| 2026-04-30 08:15 | 14.59796 | 102.65078 | 32351 ft | 495 kts | 69° |
| 2026-04-30 08:15 | 14.60926 | 102.68437 | 32538 ft | 496 kts | 69° |
| 2026-04-30 08:16 | 14.62059 | 102.71808 | 32766 ft | 497 kts | 69° |
| 2026-04-30 08:16 | 14.63193 | 102.75180 | 32890 ft | 499 kts | 69° |
| 2026-04-30 08:16 | 14.64318 | 102.78524 | 32880 ft | 500 kts | 69° |
| 2026-04-30 08:17 | 14.66615 | 102.85323 | 32867 ft | 494 kts | 69° |
| 2026-04-30 08:17 | 14.68856 | 102.91957 | 32889 ft | 492 kts | 69° |
| 2026-04-30 08:18 | 14.71109 | 102.98635 | 32893 ft | 493 kts | 69° |
| 2026-04-30 08:18 | 14.73361 | 103.05324 | 32884 ft | 493 kts | 69° |
| 2026-04-30 08:19 | 14.75619 | 103.12013 | 32888 ft | 493 kts | 69° |
| 2026-04-30 08:19 | 14.77871 | 103.18711 | 32890 ft | 494 kts | 69° |
| 2026-04-30 08:20 | 14.80121 | 103.25422 | 32889 ft | 494 kts | 69° |
| 2026-04-30 08:20 | 14.82369 | 103.32138 | 32892 ft | 495 kts | 69° |
| 2026-04-30 08:21 | 14.84620 | 103.38859 | 32899 ft | 495 kts | 69° |
| 2026-04-30 08:21 | 14.87706 | 103.45152 | 32903 ft | 490 kts | 51° |
| 2026-04-30 08:22 | 14.92078 | 103.50509 | 32893 ft | 487 kts | 46° |
| 2026-04-30 08:22 | 14.96554 | 103.55769 | 32897 ft | 487 kts | 46° |
| 2026-04-30 08:23 | 15.00976 | 103.61075 | 32895 ft | 487 kts | 47° |
| 2026-04-30 08:23 | 15.05373 | 103.66408 | 32895 ft | 487 kts | 47° |
| 2026-04-30 08:24 | 15.09766 | 103.71741 | 32902 ft | 487 kts | 47° |
| 2026-04-30 08:24 | 15.14294 | 103.76931 | 32892 ft | 484 kts | 38° |
| 2026-04-30 08:25 | 15.19840 | 103.80739 | 32895 ft | 476 kts | 20° |
| 2026-04-30 08:25 | 15.25934 | 103.83380 | 32905 ft | 475 kts | 18° |
| 2026-04-30 08:26 | 15.32006 | 103.85962 | 32905 ft | 475 kts | 19° |
| 2026-04-30 08:26 | 15.38103 | 103.88609 | 32908 ft | 475 kts | 19° |
| 2026-04-30 08:27 | 15.44191 | 103.91285 | 32905 ft | 475 kts | 19° |
| 2026-04-30 08:27 | 15.50275 | 103.93967 | 32905 ft | 475 kts | 19° |
| 2026-04-30 08:28 | 15.56360 | 103.96648 | 32916 ft | 475 kts | 19° |
| 2026-04-30 08:28 | 15.62451 | 103.99333 | 32913 ft | 476 kts | 19° |
| 2026-04-30 08:29 | 15.68548 | 104.02021 | 32904 ft | 476 kts | 19° |
| 2026-04-30 08:29 | 15.74643 | 104.04712 | 32908 ft | 476 kts | 19° |
| 2026-04-30 08:30 | 15.80745 | 104.07407 | 32907 ft | 477 kts | 19° |
| 2026-04-30 08:30 | 15.86851 | 104.10106 | 32908 ft | 477 kts | 19° |
| 2026-04-30 08:31 | 15.92959 | 104.12809 | 32913 ft | 478 kts | 19° |
| 2026-04-30 08:31 | 15.99076 | 104.15518 | 32909 ft | 478 kts | 19° |
| 2026-04-30 08:32 | 16.04105 | 104.17928 | 32898 ft | 483 kts | 27° |
| 2026-04-30 08:32 | 16.07764 | 104.20669 | 32911 ft | 488 kts | 38° |
| 2026-04-30 08:32 | 16.10145 | 104.23200 | 32921 ft | 491 kts | 45° |
| 2026-04-30 08:33 | 16.14647 | 104.28486 | 32917 ft | 492 kts | 45° |
| 2026-04-30 08:33 | 16.19201 | 104.33790 | 32914 ft | 491 kts | 45° |
| 2026-04-30 08:34 | 16.23053 | 104.38197 | 32915 ft | 492 kts | 44° |
| 2026-04-30 08:34 | 16.27659 | 104.43461 | 32925 ft | 492 kts | 45° |
| 2026-04-30 08:35 | 16.32240 | 104.48765 | 32927 ft | 493 kts | 45° |
| 2026-04-30 08:35 | 16.36783 | 104.54058 | 32929 ft | 494 kts | 45° |
| 2026-04-30 08:36 | 16.41365 | 104.59396 | 32930 ft | 495 kts | 45° |
| 2026-04-30 08:36 | 16.45954 | 104.64742 | 32938 ft | 495 kts | 45° |
| 2026-04-30 08:37 | 16.50544 | 104.70095 | 32937 ft | 495 kts | 45° |
| 2026-04-30 08:37 | 16.55134 | 104.75448 | 32947 ft | 496 kts | 46° |
| 2026-04-30 08:38 | 16.59226 | 104.81246 | 32949 ft | 498 kts | 55° |
| 2026-04-30 08:38 | 16.62903 | 104.87371 | 32943 ft | 498 kts | 56° |
| 2026-04-30 08:39 | 16.66587 | 104.93483 | 32927 ft | 497 kts | 55° |
| 2026-04-30 08:39 | 16.70315 | 104.99555 | 32928 ft | 497 kts | 55° |
| 2026-04-30 08:40 | 16.74050 | 105.05607 | 32925 ft | 496 kts | 55° |
| 2026-04-30 08:40 | 16.77777 | 105.11657 | 32926 ft | 495 kts | 55° |
| 2026-04-30 08:41 | 16.81493 | 105.17704 | 32933 ft | 495 kts | 55° |
| 2026-04-30 08:41 | 16.85204 | 105.23747 | 32935 ft | 494 kts | 56° |
| 2026-04-30 08:42 | 16.88914 | 105.29788 | 32936 ft | 494 kts | 56° |
| 2026-04-30 08:42 | 16.92616 | 105.35830 | 32933 ft | 494 kts | 56° |
| 2026-04-30 08:43 | 16.96316 | 105.41880 | 32933 ft | 494 kts | 56° |
| 2026-04-30 08:43 | 17.00015 | 105.47935 | 32940 ft | 494 kts | 56° |
| 2026-04-30 08:44 | 17.03712 | 105.53993 | 32949 ft | 495 kts | 56° |
| 2026-04-30 08:44 | 17.07411 | 105.60059 | 32948 ft | 495 kts | 56° |
| 2026-04-30 08:45 | 17.11112 | 105.66131 | 32951 ft | 495 kts | 56° |
| 2026-04-30 08:45 | 17.14809 | 105.72205 | 32956 ft | 495 kts | 57° |
| 2026-04-30 08:46 | 17.18507 | 105.78287 | 32964 ft | 496 kts | 57° |
| 2026-04-30 08:46 | 17.22209 | 105.84379 | 32978 ft | 496 kts | 57° |
| 2026-04-30 08:47 | 17.25887 | 105.90439 | 32987 ft | 497 kts | 57° |
| 2026-04-30 08:47 | 17.29590 | 105.96547 | 32993 ft | 497 kts | 57° |
| 2026-04-30 08:48 | 17.33293 | 106.02662 | 32994 ft | 498 kts | 57° |
| 2026-04-30 08:48 | 17.36996 | 106.08778 | 33002 ft | 497 kts | 57° |
| 2026-04-30 08:49 | 17.40731 | 106.14864 | 33014 ft | 496 kts | 56° |
| 2026-04-30 08:49 | 17.44477 | 106.20931 | 33019 ft | 496 kts | 56° |
| 2026-04-30 08:50 | 17.48213 | 106.27001 | 33014 ft | 495 kts | 56° |
| 2026-04-30 08:50 | 17.51938 | 106.33073 | 33007 ft | 496 kts | 56° |
| 2026-04-30 08:51 | 17.55666 | 106.39156 | 33001 ft | 496 kts | 56° |
| 2026-04-30 08:51 | 17.59389 | 106.45237 | 33007 ft | 496 kts | 56° |
| 2026-04-30 08:52 | 17.63111 | 106.51324 | 32999 ft | 496 kts | 56° |
| 2026-04-30 08:52 | 17.66832 | 106.57415 | 33001 ft | 496 kts | 56° |
| 2026-04-30 08:53 | 17.70552 | 106.63508 | 32991 ft | 496 kts | 56° |
| 2026-04-30 08:53 | 17.74270 | 106.69611 | 32990 ft | 497 kts | 57° |
| 2026-04-30 08:54 | 17.77986 | 106.75723 | 33003 ft | 497 kts | 57° |
| 2026-04-30 08:54 | 17.81676 | 106.81801 | 32988 ft | 497 kts | 57° |
| 2026-04-30 08:55 | 17.85393 | 106.87932 | 32995 ft | 498 kts | 57° |
| 2026-04-30 08:55 | 17.89114 | 106.94065 | 32992 ft | 498 kts | 57° |
| 2026-04-30 08:56 | 17.92866 | 107.00187 | 32982 ft | 499 kts | 56° |
| 2026-04-30 08:56 | 17.96623 | 107.06306 | 32982 ft | 499 kts | 56° |
| 2026-04-30 08:57 | 18.00373 | 107.12434 | 32990 ft | 499 kts | 56° |
| 2026-04-30 08:57 | 18.04120 | 107.18572 | 32983 ft | 499 kts | 56° |
| 2026-04-30 08:58 | 18.07868 | 107.24713 | 32979 ft | 499 kts | 56° |
| 2026-04-30 08:58 | 18.11606 | 107.30857 | 32990 ft | 499 kts | 56° |
| 2026-04-30 08:59 | 18.15340 | 107.37007 | 32981 ft | 499 kts | 57° |
| 2026-04-30 08:59 | 18.19065 | 107.43154 | 32997 ft | 498 kts | 57° |
| 2026-04-30 09:00 | 18.22786 | 107.49299 | 32972 ft | 498 kts | 57° |
| 2026-04-30 09:00 | 18.26497 | 107.55434 | 32981 ft | 497 kts | 57° |
| 2026-04-30 09:01 | 18.30198 | 107.61561 | 32972 ft | 496 kts | 56° |
| 2026-04-30 09:01 | 18.33904 | 107.67697 | 32985 ft | 496 kts | 56° |
| 2026-04-30 09:02 | 18.40281 | 107.76264 | 32997 ft | 496 kts | 48° |
| 2026-04-30 09:02 | 18.44800 | 107.81748 | 32974 ft | 496 kts | 48° |
| 2026-04-30 09:03 | 18.49257 | 107.87287 | 33024 ft | 494 kts | 49° |
| 2026-04-30 09:03 | 18.53633 | 107.92837 | 33072 ft | 492 kts | 49° |
| 2026-04-30 09:04 | 18.58002 | 107.98411 | 33088 ft | 494 kts | 49° |
| 2026-04-30 09:04 | 18.62390 | 108.04012 | 33088 ft | 497 kts | 49° |
| 2026-04-30 09:05 | 18.66803 | 108.09643 | 33086 ft | 500 kts | 49° |
| 2026-04-30 09:05 | 18.71243 | 108.15313 | 33086 ft | 503 kts | 49° |
| 2026-04-30 09:06 | 18.75704 | 108.21013 | 33081 ft | 505 kts | 49° |
| 2026-04-30 09:06 | 18.80177 | 108.26735 | 33075 ft | 506 kts | 49° |
| 2026-04-30 09:07 | 18.84649 | 108.32461 | 32971 ft | 504 kts | 49° |
| 2026-04-30 09:07 | 18.86878 | 108.35317 | 32630 ft | 504 kts | 49° |
| 2026-04-30 09:07 | 18.89112 | 108.38181 | 32216 ft | 505 kts | 49° |
| 2026-04-30 09:08 | 18.91344 | 108.41044 | 31825 ft | 505 kts | 49° |
| 2026-04-30 09:08 | 18.93574 | 108.43905 | 31412 ft | 504 kts | 49° |
| 2026-04-30 09:08 | 18.95796 | 108.46758 | 31019 ft | 503 kts | 49° |
| 2026-04-30 09:08 | 18.98018 | 108.49612 | 30581 ft | 503 kts | 48° |
| 2026-04-30 09:09 | 19.00242 | 108.52469 | 30125 ft | 503 kts | 48° |
| 2026-04-30 09:09 | 19.02463 | 108.55325 | 29609 ft | 503 kts | 48° |
| 2026-04-30 09:09 | 19.04683 | 108.58180 | 29087 ft | 502 kts | 48° |
| 2026-04-30 09:09 | 19.06898 | 108.61030 | 28574 ft | 502 kts | 48° |
| 2026-04-30 09:10 | 19.09109 | 108.63877 | 28072 ft | 501 kts | 48° |
| 2026-04-30 09:10 | 19.11318 | 108.66722 | 27582 ft | 500 kts | 48° |
| 2026-04-30 09:10 | 19.13494 | 108.69526 | 27102 ft | 500 kts | 48° |
| 2026-04-30 09:10 | 19.15697 | 108.72366 | 26634 ft | 500 kts | 48° |
| 2026-04-30 09:11 | 19.17922 | 108.75234 | 26173 ft | 507 kts | 48° |
| 2026-04-30 09:11 | 19.20165 | 108.78127 | 25705 ft | 509 kts | 48° |
| 2026-04-30 09:11 | 19.22400 | 108.81014 | 25245 ft | 504 kts | 48° |
| 2026-04-30 09:11 | 19.24607 | 108.83869 | 24788 ft | 498 kts | 48° |
| 2026-04-30 09:12 | 19.26792 | 108.86694 | 24340 ft | 494 kts | 48° |
| 2026-04-30 09:12 | 19.28954 | 108.89490 | 23902 ft | 489 kts | 48° |
| 2026-04-30 09:12 | 19.31100 | 108.92266 | 23439 ft | 485 kts | 48° |
| 2026-04-30 09:12 | 19.33227 | 108.95017 | 22940 ft | 481 kts | 48° |
| 2026-04-30 09:13 | 19.35337 | 108.97749 | 22431 ft | 477 kts | 49° |
| 2026-04-30 09:13 | 19.37432 | 109.00461 | 21930 ft | 474 kts | 49° |
| 2026-04-30 09:13 | 19.39512 | 109.03156 | 21438 ft | 471 kts | 49° |
| 2026-04-30 09:13 | 19.41581 | 109.05838 | 20952 ft | 469 kts | 49° |
| 2026-04-30 09:14 | 19.43637 | 109.08505 | 20489 ft | 466 kts | 49° |
| 2026-04-30 09:14 | 19.45683 | 109.11159 | 20019 ft | 464 kts | 49° |
| 2026-04-30 09:14 | 19.47717 | 109.13800 | 19562 ft | 462 kts | 49° |
| 2026-04-30 09:14 | 19.49741 | 109.16429 | 19107 ft | 459 kts | 49° |
| 2026-04-30 09:15 | 19.51757 | 109.19047 | 18654 ft | 457 kts | 49° |
| 2026-04-30 09:15 | 19.53758 | 109.21659 | 18207 ft | 455 kts | 50° |
| 2026-04-30 09:15 | 19.55738 | 109.24258 | 17696 ft | 452 kts | 50° |
| 2026-04-30 09:15 | 19.57704 | 109.26846 | 17197 ft | 449 kts | 50° |
| 2026-04-30 09:16 | 19.59654 | 109.29418 | 16706 ft | 445 kts | 50° |
| 2026-04-30 09:16 | 19.61585 | 109.31964 | 16218 ft | 441 kts | 50° |
| 2026-04-30 09:16 | 19.63499 | 109.34488 | 15741 ft | 437 kts | 49° |
| 2026-04-30 09:16 | 19.65396 | 109.36989 | 15273 ft | 433 kts | 49° |
| 2026-04-30 09:17 | 19.67273 | 109.39465 | 14808 ft | 429 kts | 49° |
| 2026-04-30 09:17 | 19.69135 | 109.41921 | 14349 ft | 425 kts | 49° |
| 2026-04-30 09:17 | 19.70978 | 109.44352 | 13958 ft | 420 kts | 49° |
| 2026-04-30 09:17 | 19.72791 | 109.46745 | 13543 ft | 413 kts | 49° |
| 2026-04-30 09:18 | 19.73976 | 109.48310 | 13255 ft | 408 kts | 49° |
| 2026-04-30 09:18 | 19.75742 | 109.50641 | 12828 ft | 402 kts | 49° |
| 2026-04-30 09:18 | 19.77482 | 109.52940 | 12407 ft | 397 kts | 49° |
| 2026-04-30 09:18 | 19.79200 | 109.55210 | 11985 ft | 392 kts | 49° |
| 2026-04-30 09:19 | 19.80895 | 109.57451 | 11585 ft | 387 kts | 50° |
| 2026-04-30 09:19 | 19.82569 | 109.59666 | 11181 ft | 383 kts | 50° |
| 2026-04-30 09:19 | 19.84225 | 109.61857 | 10781 ft | 378 kts | 50° |
| 2026-04-30 09:19 | 19.85865 | 109.64028 | 10386 ft | 375 kts | 50° |
| 2026-04-30 09:20 | 19.87485 | 109.66175 | 10038 ft | 370 kts | 50° |
| 2026-04-30 09:20 | 19.89077 | 109.68286 | 9760 ft | 363 kts | 50° |
| 2026-04-30 09:20 | 19.90643 | 109.70361 | 9449 ft | 357 kts | 50° |
| 2026-04-30 09:20 | 19.92183 | 109.72402 | 9141 ft | 351 kts | 50° |
| 2026-04-30 09:21 | 19.93700 | 109.74411 | 8842 ft | 346 kts | 50° |
| 2026-04-30 09:21 | 19.95201 | 109.76385 | 8539 ft | 341 kts | 50° |
| 2026-04-30 09:21 | 19.96684 | 109.78330 | 8249 ft | 337 kts | 50° |
| 2026-04-30 09:21 | 19.98150 | 109.80254 | 7958 ft | 333 kts | 49° |
| 2026-04-30 09:22 | 19.99602 | 109.82160 | 7682 ft | 331 kts | 49° |
| 2026-04-30 09:22 | 20.01043 | 109.84055 | 7396 ft | 329 kts | 49° |
| 2026-04-30 09:22 | 20.02476 | 109.85940 | 7113 ft | 326 kts | 49° |
| 2026-04-30 09:22 | 20.03892 | 109.87804 | 6823 ft | 322 kts | 49° |
| 2026-04-30 09:23 | 20.05291 | 109.89648 | 6549 ft | 319 kts | 49° |
| 2026-04-30 09:23 | 20.06675 | 109.91472 | 6263 ft | 315 kts | 49° |
| 2026-04-30 09:23 | 20.08044 | 109.93277 | 5963 ft | 312 kts | 49° |
| 2026-04-30 09:23 | 20.09401 | 109.95066 | 5681 ft | 309 kts | 49° |
| 2026-04-30 09:24 | 20.10745 | 109.96838 | 5385 ft | 306 kts | 49° |
| 2026-04-30 09:24 | 20.12075 | 109.98591 | 5097 ft | 303 kts | 49° |
| 2026-04-30 09:24 | 20.13321 | 110.00382 | 4861 ft | 300 kts | 61° |
| 2026-04-30 09:24 | 20.13831 | 110.02494 | 4706 ft | 295 kts | 89° |
| 2026-04-30 09:25 | 20.13442 | 110.04594 | 4558 ft | 288 kts | 113° |
| 2026-04-30 09:25 | 20.12385 | 110.06354 | 4408 ft | 281 kts | 134° |
| 2026-04-30 09:25 | 20.10947 | 110.07729 | 4277 ft | 276 kts | 140° |
| 2026-04-30 09:25 | 20.09484 | 110.09046 | 4126 ft | 275 kts | 139° |
| 2026-04-30 09:26 | 20.08034 | 110.10359 | 3982 ft | 273 kts | 139° |
| 2026-04-30 09:26 | 20.06594 | 110.11671 | 3833 ft | 272 kts | 139° |
| 2026-04-30 09:26 | 20.05159 | 110.12971 | 3684 ft | 270 kts | 142° |
| 2026-04-30 09:26 | 20.03459 | 110.13765 | 3509 ft | 269 kts | 173° |
| 2026-04-30 09:27 | 20.01603 | 110.13849 | 3398 ft | 267 kts | 182° |
| 2026-04-30 09:27 | 19.99735 | 110.13847 | 3262 ft | 270 kts | 181° |
| 2026-04-30 09:27 | 19.97851 | 110.13839 | 3113 ft | 271 kts | 181° |
| 2026-04-30 09:27 | 19.95965 | 110.13845 | 2965 ft | 272 kts | 178° |
| 2026-04-30 09:28 | 19.94160 | 110.14383 | 2778 ft | 272 kts | 144° |
| 2026-04-30 09:28 | 19.93011 | 110.15920 | 2641 ft | 267 kts | 107° |
| 2026-04-30 09:28 | 19.92878 | 110.17849 | 2514 ft | 261 kts | 82° |
| 2026-04-30 09:28 | 19.93071 | 110.19774 | 2375 ft | 263 kts | 83° |
| 2026-04-30 09:29 | 19.93219 | 110.21702 | 2229 ft | 261 kts | 84° |
| 2026-04-30 09:29 | 19.93318 | 110.23608 | 2100 ft | 257 kts | 86° |
| 2026-04-30 09:29 | 19.93378 | 110.25486 | 2025 ft | 258 kts | 87° |
| 2026-04-30 09:29 | 19.93408 | 110.27353 | 1993 ft | 244 kts | 87° |
| 2026-04-30 09:30 | 19.93423 | 110.29059 | 1955 ft | 218 kts | 87° |
| 2026-04-30 09:30 | 19.93441 | 110.30573 | 1960 ft | 194 kts | 88° |
| 2026-04-30 09:30 | 19.93447 | 110.31927 | 1981 ft | 172 kts | 88° |
| 2026-04-30 09:30 | 19.93451 | 110.33151 | 1993 ft | 162 kts | 87° |
| 2026-04-30 09:31 | 19.93454 | 110.34364 | 1860 ft | 164 kts | 88° |
| 2026-04-30 09:31 | 19.93455 | 110.35552 | 1666 ft | 156 kts | 87° |
| 2026-04-30 09:31 | 19.93458 | 110.36647 | 1494 ft | 141 kts | 86° |
| 2026-04-30 09:31 | 19.93461 | 110.37671 | 1285 ft | 137 kts | 86° |
| 2026-04-30 09:32 | 19.93464 | 110.38700 | 1104 ft | 142 kts | 86° |
| 2026-04-30 09:32 | 19.93465 | 110.39744 | 920 ft | 139 kts | 88° |
| 2026-04-30 09:32 | 19.93468 | 110.40777 | 738 ft | 139 kts | 85° |
| 2026-04-30 09:32 | 19.93477 | 110.41826 | 586 ft | 145 kts | 85° |
| 2026-04-30 09:33 | 19.93479 | 110.42871 | 343 ft | 137 kts | 83° |
| 2026-04-30 09:33 | 19.93476 | 110.43871 | 178 ft | 134 kts | 86° |
| 2026-04-30 09:33 | 19.93481 | 110.44884 | 87 ft | 132 kts | 85° |
| 2026-04-30 09:33 | 19.93480 | 110.45741 | 81 ft | 96 kts | 90° |
| 2026-04-30 09:34 | 19.93480 | 110.46260 | 76 ft | 31 kts | 90° |
| 2026-04-30 09:34 | 19.93488 | 110.46432 | 75 ft | 21 kts | 81° |
| 2026-04-30 09:34 | 19.93541 | 110.46569 | 71 ft | 19 kts | 61° |
| 2026-04-30 09:34 | 19.93605 | 110.46669 | 73 ft | 11 kts | 30° |
| 2026-04-30 09:35 | 19.93675 | 110.46669 | 70 ft | 10 kts | 356° |
| 2026-04-30 09:35 | 19.93733 | 110.46649 | 66 ft | 9 kts | 301° |
| 2026-04-30 09:35 | 19.93737 | 110.46583 | 69 ft | 9 kts | 269° |
| 2026-04-30 09:35 | 19.93737 | 110.46518 | 73 ft | 9 kts | 270° |
| 2026-04-30 09:36 | 19.93737 | 110.46455 | 72 ft | 8 kts | 270° |
| 2026-04-30 09:36 | 19.93736 | 110.46390 | 72 ft | 10 kts | 270° |
| 2026-04-30 09:36 | 19.93736 | 110.46300 | 75 ft | 15 kts | 270° |
| 2026-04-30 09:36 | 19.93737 | 110.46174 | 70 ft | 18 kts | 270° |
| 2026-04-30 09:37 | 19.93734 | 110.46055 | 75 ft | 15 kts | 268° |
| 2026-04-30 09:37 | 19.93745 | 110.45985 | 75 ft | 5 kts | 326° |
| 2026-04-30 09:37 | 19.93783 | 110.45988 | 72 ft | 6 kts | 27° |
| 2026-04-30 09:37 | 19.93823 | 110.46026 | 74 ft | 10 kts | 45° |
| 2026-04-30 09:38 | 19.93861 | 110.46068 | 72 ft | 6 kts | 45° |
| 2026-04-30 09:38 | 19.93887 | 110.46096 | 76 ft | 2 kts | 45° |
| 2026-04-30 09:38 | 19.93889 | 110.46098 | 76 ft | 0 kts | 45° |